Time;durP1;ratioP1;P1;durP2;ratioP2;P2;SDS_P1;SDS_P2;PMS_P1;PMS_P2;Temp;Humidity;BMP_temperature;BMP_pressure;BME280_temperature;BME280_humidity;BME280_pressure;Samples;Min_cycle;Max_cycle;Signal;HPM_P1;HPM_P2
2022/01/18 00:00:03;;;;;;;18.75;5.70;;;0.00;99.90;;;;;;2098669;28;20035;-73
2022/01/18 00:01:05;;;;;;;16.73;5.20;;;0.00;99.90;;;;;;2097860;28;20020;-72
2022/01/18 00:02:06;;;;;;;19.58;5.55;;;0.00;99.90;;;;;;2088667;28;20029;-72
2022/01/18 00:03:10;;;;;;;15.93;5.63;;;0.00;99.90;;;;;;2089506;28;20388;-72
2022/01/18 00:04:11;;;;;;;17.67;6.13;;;0.00;99.90;;;;;;2097061;28;20023;-72
2022/01/18 00:05:16;;;;;;;13.40;5.22;;;0.00;99.90;;;;;;2088940;28;20033;-73
2022/01/18 00:06:17;;;;;;;14.68;5.47;;;0.00;99.90;;;;;;2089490;28;20017;-72
2022/01/18 00:07:18;;;;;;;17.85;5.72;;;0.00;99.90;;;;;;2088938;28;20081;-72
2022/01/18 00:08:20;;;;;;;20.73;5.90;;;0.00;99.90;;;;;;2088166;28;20020;-70
2022/01/18 00:09:23;;;;;;;16.92;5.95;;;0.00;99.90;;;;;;2099612;28;20039;-73
2022/01/18 00:10:27;;;;;;;24.67;7.00;;;0.00;99.90;;;;;;2087875;28;20030;-72
2022/01/18 00:11:34;;;;;;;32.55;7.57;;;0.00;99.90;;;;;;2091132;28;20080;-72
2022/01/18 00:14:43;;;;;;;26.30;7.30;;;0.00;99.90;;;;;;2094202;28;20103;-73
2022/01/18 00:16:08;;;;;;;27.45;7.30;;;0.00;99.90;;;;;;2099294;28;20020;-71
2022/01/18 00:17:19;;;;;;;;;;;0.00;99.90;;;;;;2097934;28;20081;-72
2022/01/18 00:18:20;;;;;;;24.10;6.80;;;0.00;99.90;;;;;;2093297;28;19966;-71
2022/01/18 00:19:24;;;;;;;23.23;6.97;;;0.00;99.90;;;;;;2098158;28;20081;-73
2022/01/18 00:20:36;;;;;;;25.20;7.18;;;0.00;99.90;;;;;;2079614;28;20020;-71
2022/01/18 00:22:05;;;;;;;24.45;7.30;;;0.00;99.90;;;;;;2075170;28;20465;-71
2022/01/18 00:23:06;;;;;;;36.55;7.43;;;0.00;99.90;;;;;;2076421;28;20052;-73
2022/01/18 00:24:08;;;;;;;31.92;8.27;;;0.00;99.90;;;;;;2073399;28;20398;-71
2022/01/18 00:25:08;;;;;;;29.48;7.88;;;0.00;99.90;;;;;;2073571;28;20516;-72
2022/01/18 00:26:10;;;;;;;21.83;7.30;;;0.00;99.90;;;;;;2073831;28;20026;-72
2022/01/18 00:27:14;;;;;;;29.13;7.70;;;0.00;99.90;;;;;;2090923;28;20032;-72
2022/01/18 00:28:16;;;;;;;23.55;7.15;;;0.00;99.90;;;;;;2097548;28;20021;-73
2022/01/18 00:29:20;;;;;;;25.65;7.60;;;0.00;99.90;;;;;;2098323;28;20028;-73
2022/01/18 00:32:00;;;;;;;26.73;7.05;;;0.00;99.90;;;;;;2097720;28;20084;-73
2022/01/18 00:33:02;;;;;;;22.38;7.05;;;0.00;99.90;;;;;;2087266;28;20048;-71
2022/01/18 00:34:09;;;;;;;23.95;6.88;;;-0.10;99.90;;;;;;2081208;28;20101;-72
2022/01/18 00:35:10;;;;;;;19.90;7.03;;;-0.10;99.90;;;;;;2088602;28;20132;-73
2022/01/18 00:36:25;;;;;;;21.75;6.65;;;-0.10;99.90;;;;;;2089369;28;20052;-73
2022/01/18 00:37:33;;;;;;;23.02;7.18;;;-0.10;99.90;;;;;;2092457;28;20565;-73
2022/01/18 00:38:47;;;;;;;28.35;7.68;;;-0.10;99.90;;;;;;2087678;28;20029;-73
2022/01/18 00:39:48;;;;;;;26.70;7.60;;;-0.10;99.90;;;;;;2092066;28;20021;-73
2022/01/18 00:40:49;;;;;;;28.48;7.82;;;-0.10;99.90;;;;;;2097927;28;20025;-72
2022/01/18 00:41:51;;;;;;;26.60;7.93;;;-0.10;99.90;;;;;;2097395;28;20033;-73
2022/01/18 00:42:52;;;;;;;22.95;8.07;;;-0.10;99.90;;;;;;2097705;28;20029;-72
2022/01/18 00:43:54;;;;;;;22.23;7.40;;;-0.10;99.90;;;;;;2097596;28;20025;-72
2022/01/18 00:44:55;;;;;;;21.75;7.45;;;-0.10;99.90;;;;;;2096605;28;20123;-73
2022/01/18 00:45:56;;;;;;;20.33;7.53;;;-0.10;99.90;;;;;;2098691;28;20062;-73
2022/01/18 00:46:56;;;;;;;22.38;7.70;;;-0.10;99.90;;;;;;2096502;28;20024;-73
2022/01/18 00:48:01;;;;;;;24.10;7.85;;;-0.10;99.90;;;;;;2097382;28;20016;-72
2022/01/18 00:49:03;;;;;;;18.65;7.10;;;-0.20;99.90;;;;;;2080452;28;20032;-72
2022/01/18 00:50:04;;;;;;;20.75;7.13;;;-0.20;99.90;;;;;;2072755;28;20022;-73
2022/01/18 00:51:11;;;;;;;20.38;7.20;;;-0.20;99.90;;;;;;2098414;28;20082;-73
2022/01/18 00:52:16;;;;;;;24.60;7.70;;;-0.20;99.90;;;;;;2087554;28;20488;-73
2022/01/18 00:53:19;;;;;;;21.55;7.45;;;-0.20;99.90;;;;;;2080960;28;20036;-73
2022/01/18 00:54:24;;;;;;;22.45;7.40;;;-0.20;99.90;;;;;;2089677;28;20028;-71
2022/01/18 00:55:32;;;;;;;21.58;7.30;;;-0.20;99.90;;;;;;2088453;28;20073;-71
2022/01/18 00:56:33;;;;;;;23.02;7.28;;;-0.20;99.90;;;;;;2088547;28;20017;-71
2022/01/18 00:57:34;;;;;;;22.80;7.55;;;-0.20;99.90;;;;;;2082585;28;20029;-72
2022/01/18 00:58:34;;;;;;;20.05;7.40;;;-0.20;99.90;;;;;;2080954;28;20027;-72
2022/01/18 00:59:36;;;;;;;18.70;6.68;;;-0.20;99.90;;;;;;2080931;28;20362;-70
2022/01/18 01:00:37;;;;;;;14.05;6.40;;;-0.20;99.90;;;;;;2088946;28;20112;-73
2022/01/18 01:01:37;;;;;;;16.98;6.82;;;-0.20;99.90;;;;;;2080474;28;20025;-72
2022/01/18 01:02:38;;;;;;;22.08;7.15;;;-0.20;99.90;;;;;;2076155;28;20132;-71
2022/01/18 01:03:39;;;;;;;19.50;6.60;;;-0.20;99.90;;;;;;2073812;28;20029;-72
2022/01/18 01:04:47;;;;;;;18.95;6.50;;;-0.10;99.90;;;;;;2081016;28;20465;-71
2022/01/18 01:05:48;;;;;;;15.23;5.85;;;-0.20;99.90;;;;;;2081667;28;20041;-71
2022/01/18 01:06:48;;;;;;;23.38;6.57;;;-0.10;99.90;;;;;;2089191;28;20017;-72
2022/01/18 01:07:49;;;;;;;21.27;6.72;;;-0.10;99.90;;;;;;2089809;28;20066;-71
2022/01/18 01:08:51;;;;;;;18.77;6.15;;;-0.10;99.90;;;;;;2080846;28;20072;-72
2022/01/18 01:09:52;;;;;;;19.60;6.10;;;-0.10;99.90;;;;;;2081985;28;20029;-72
2022/01/18 01:10:56;;;;;;;19.95;6.22;;;-0.10;99.90;;;;;;2087678;28;20080;-73
2022/01/18 01:11:57;;;;;;;20.70;6.38;;;-0.10;99.90;;;;;;2096845;28;20417;-72
2022/01/18 01:12:58;;;;;;;19.13;6.15;;;-0.10;99.90;;;;;;2097684;28;20028;-73
2022/01/18 01:14:01;;;;;;;27.42;7.13;;;-0.10;99.90;;;;;;2097962;28;20039;-71
2022/01/18 01:15:10;;;;;;;23.92;6.60;;;-0.10;99.90;;;;;;2096934;28;20035;-73
2022/01/18 01:33:59;;;;;;;16.92;6.22;;;-0.10;99.90;;;;;;2096992;28;20017;-71
2022/01/18 01:34:57;;;;;;;16.90;5.90;;;-0.10;99.90;;;;;;2100194;28;20032;-71
2022/01/18 01:36:19;;;;;;;13.93;5.65;;;-0.10;99.90;;;;;;2100802;28;20017;-73
2022/01/18 01:44:59;;;;;;;20.52;6.10;;;0.00;99.90;;;;;;2090609;28;20037;-73
2022/01/18 01:46:02;;;;;;;27.55;6.15;;;0.00;99.90;;;;;;2089561;28;20062;-72
2022/01/18 01:47:03;;;;;;;25.05;6.47;;;0.00;99.90;;;;;;2087830;28;20847;-73
2022/01/18 01:48:05;;;;;;;21.67;6.72;;;0.10;99.90;;;;;;2098284;28;20013;-72
2022/01/18 01:49:11;;;;;;;38.78;8.15;;;0.10;99.90;;;;;;2088544;28;20020;-73
2022/01/18 01:50:17;;;;;;;32.53;7.47;;;0.10;99.90;;;;;;2081939;28;20032;-71
2022/01/18 01:51:18;;;;;;;32.58;7.30;;;0.20;99.90;;;;;;2090526;28;20029;-72
2022/01/18 01:52:20;;;;;;;29.63;7.30;;;0.20;99.90;;;;;;2088764;28;20588;-72
2022/01/18 01:53:24;;;;;;;22.88;6.78;;;0.30;99.90;;;;;;2083587;28;20491;-72
2022/01/18 01:54:25;;;;;;;23.77;7.30;;;0.30;99.90;;;;;;2090481;28;20044;-72
2022/01/18 01:55:25;;;;;;;20.13;6.50;;;0.30;99.90;;;;;;2089263;28;20033;-72
2022/01/18 01:56:27;;;;;;;20.23;6.70;;;0.30;99.90;;;;;;2087828;28;20021;-72
2022/01/18 01:57:28;;;;;;;18.40;6.60;;;0.30;99.90;;;;;;2099435;28;20025;-72
2022/01/18 01:58:29;;;;;;;22.50;6.78;;;0.30;99.90;;;;;;2098052;28;20025;-72
2022/01/18 01:59:31;;;;;;;19.65;6.38;;;0.30;99.90;;;;;;2089377;28;20116;-71
2022/01/18 02:00:48;;;;;;;16.60;6.07;;;0.30;99.90;;;;;;2090575;28;20053;-72
2022/01/18 02:01:49;;;;;;;24.38;7.00;;;0.30;99.90;;;;;;2089086;28;20043;-72
2022/01/18 02:02:50;;;;;;;23.92;6.85;;;0.30;99.90;;;;;;2072964;28;20433;-72
2022/01/18 02:03:51;;;;;;;19.67;6.75;;;0.30;99.90;;;;;;2082433;28;20033;-72
2022/01/18 02:04:52;;;;;;;22.40;6.65;;;0.30;99.90;;;;;;2089297;28;20029;-71
2022/01/18 02:05:53;;;;;;;27.90;7.07;;;0.30;99.90;;;;;;2089295;28;20049;-72
2022/01/18 02:06:54;;;;;;;28.70;7.13;;;0.30;99.90;;;;;;2098348;28;20028;-72
2022/01/18 02:07:54;;;;;;;26.98;6.78;;;0.30;99.90;;;;;;2090938;28;20029;-71
2022/01/18 02:08:55;;;;;;;21.95;6.75;;;0.30;99.90;;;;;;2096086;28;20037;-73
2022/01/18 02:10:03;;;;;;;27.77;7.32;;;0.40;99.90;;;;;;2090535;28;20086;-72
2022/01/18 02:11:04;;;;;;;28.50;6.88;;;0.40;99.90;;;;;;2088971;28;20021;-72
2022/01/18 02:12:06;;;;;;;31.98;7.10;;;0.40;99.90;;;;;;2089005;28;20029;-72
2022/01/18 02:13:08;;;;;;;25.70;6.90;;;0.40;99.90;;;;;;2089594;28;20064;-73
2022/01/18 02:14:15;;;;;;;24.67;6.90;;;0.40;99.90;;;;;;2088243;28;20128;-73
2022/01/18 02:15:18;;;;;;;24.02;7.03;;;0.40;99.90;;;;;;2080211;28;20033;-72
2022/01/18 02:21:52;;;;;;;24.42;6.82;;;0.40;99.90;;;;;;2090490;28;20025;-73
2022/01/18 02:22:54;;;;;;;28.00;7.00;;;0.50;99.90;;;;;;2080221;28;20064;-72
2022/01/18 02:23:54;;;;;;;41.33;7.93;;;0.50;99.90;;;;;;2081245;28;20535;-72
2022/01/18 02:24:55;;;;;;;32.58;8.15;;;0.50;99.90;;;;;;2081706;28;20035;-72
2022/01/18 02:26:00;;;;;;;32.45;7.95;;;0.50;99.90;;;;;;2089645;28;20048;-73
2022/01/18 02:27:01;;;;;;;38.78;7.45;;;0.50;99.90;;;;;;2090698;28;20025;-72
2022/01/18 02:28:02;;;;;;;32.45;7.45;;;0.50;99.90;;;;;;2081714;28;20025;-73
2022/01/18 02:29:07;;;;;;;26.88;7.18;;;0.50;99.90;;;;;;2081131;28;20108;-72
2022/01/18 02:30:08;;;;;;;34.88;7.22;;;0.50;99.90;;;;;;2091536;28;20025;-72
2022/01/18 02:31:10;;;;;;;36.80;7.68;;;0.50;99.90;;;;;;2089925;28;20017;-72
2022/01/18 02:32:11;;;;;;;28.77;6.75;;;0.50;99.90;;;;;;2088293;28;20074;-73
2022/01/18 02:33:13;;;;;;;25.20;6.75;;;0.50;99.90;;;;;;2090389;28;20434;-73
2022/01/18 02:34:17;;;;;;;21.80;6.25;;;0.40;99.90;;;;;;2089819;28;20032;-73
2022/01/18 02:35:18;;;;;;;34.15;7.10;;;0.40;99.90;;;;;;2089816;28;20021;-73
2022/01/18 02:36:19;;;;;;;25.38;6.30;;;0.40;99.90;;;;;;2082020;28;20033;-73
2022/01/18 02:37:20;;;;;;;33.47;6.57;;;0.40;99.90;;;;;;2089848;28;20084;-73
2022/01/18 02:38:22;;;;;;;38.03;7.22;;;0.30;99.90;;;;;;2098520;28;20028;-72
2022/01/18 02:39:25;;;;;;;53.25;8.18;;;0.30;99.90;;;;;;2099408;28;20025;-73
2022/01/18 02:40:26;;;;;;;60.78;8.18;;;0.30;99.90;;;;;;2088255;28;20029;-72
2022/01/18 02:41:30;;;;;;;47.63;7.18;;;0.30;99.90;;;;;;2088753;28;20055;-73
2022/01/18 02:42:41;;;;;;;68.03;8.00;;;0.30;99.90;;;;;;2098065;28;20021;-73
2022/01/18 02:43:48;;;;;;;83.93;8.55;;;0.30;99.90;;;;;;2088843;28;20112;-73
2022/01/18 02:44:49;;;;;;;58.45;8.15;;;0.40;99.90;;;;;;2088995;28;20032;-74
2022/01/18 02:45:51;;;;;;;50.45;7.25;;;0.40;99.90;;;;;;2097859;28;20055;-73
2022/01/18 02:46:52;;;;;;;58.40;8.00;;;0.40;99.90;;;;;;2091833;28;20096;-72
2022/01/18 02:47:53;;;;;;;60.50;7.80;;;0.40;99.90;;;;;;2099411;28;20074;-73
2022/01/18 02:48:58;;;;;;;41.90;7.22;;;0.40;99.90;;;;;;2099415;28;20024;-73
2022/01/18 02:49:59;;;;;;;39.08;6.72;;;0.30;99.90;;;;;;2090436;28;20760;-73
2022/01/18 02:51:00;;;;;;;36.28;6.18;;;0.30;99.90;;;;;;2089829;28;20025;-73
2022/01/18 02:52:02;;;;;;;43.92;6.72;;;0.30;99.90;;;;;;2091185;28;20610;-72
2022/01/18 02:53:03;;;;;;;33.53;6.55;;;0.30;99.90;;;;;;2091893;28;20459;-73
2022/01/18 02:54:06;;;;;;;33.67;6.50;;;0.30;99.90;;;;;;2099624;28;20040;-73
2022/01/18 02:55:08;;;;;;;28.60;5.45;;;0.30;99.90;;;;;;2099639;28;20024;-69
2022/01/18 02:56:09;;;;;;;20.38;5.20;;;0.40;99.90;;;;;;2081010;28;20112;-71
2022/01/18 02:57:13;;;;;;;37.05;6.28;;;0.40;99.90;;;;;;2082633;28;20064;-71
2022/01/18 02:58:23;;;;;;;38.28;6.22;;;0.40;99.90;;;;;;2080966;28;20040;-73
2022/01/18 02:59:38;;;;;;;55.03;6.68;;;0.40;99.90;;;;;;2083595;28;20053;-71
2022/01/18 03:03:44;;;;;;;45.30;6.45;;;0.50;99.90;;;;;;2092863;28;20028;-72
2022/01/18 03:04:47;;;;;;;39.78;6.40;;;0.60;99.90;;;;;;2088420;28;20043;-72
2022/01/18 03:05:48;;;;;;;35.65;6.93;;;0.60;99.90;;;;;;2082911;28;20009;-72
2022/01/18 03:06:49;;;;;;;28.60;5.82;;;0.60;99.90;;;;;;2090712;28;20067;-73
2022/01/18 03:07:50;;;;;;;29.25;5.70;;;0.60;99.90;;;;;;2098280;28;20020;-72
2022/01/18 03:08:51;;;;;;;26.58;5.47;;;0.60;99.90;;;;;;2097116;28;20020;-73
2022/01/18 03:09:51;;;;;;;30.05;5.85;;;0.60;99.90;;;;;;2099894;28;20028;-72
2022/01/18 03:10:52;;;;;;;41.42;7.25;;;0.70;99.90;;;;;;2091042;28;20048;-72
2022/01/18 03:11:53;;;;;;;28.30;6.05;;;0.70;99.90;;;;;;2096782;28;20123;-74
2022/01/18 03:12:54;;;;;;;32.05;6.57;;;0.70;99.90;;;;;;2099772;28;20017;-73
2022/01/18 03:13:55;;;;;;;32.20;6.90;;;0.70;99.90;;;;;;2088865;28;20484;-72
2022/01/18 03:14:56;;;;;;;30.25;6.50;;;0.70;99.90;;;;;;2074154;28;20026;-73
2022/01/18 03:15:57;;;;;;;25.63;6.03;;;0.70;99.90;;;;;;2090889;28;20446;-71
2022/01/18 03:16:58;;;;;;;35.10;6.72;;;0.70;99.90;;;;;;2098248;28;20029;-72
2022/01/18 03:18:00;;;;;;;32.63;6.80;;;0.80;99.90;;;;;;2090397;28;20112;-73
2022/01/18 03:19:04;;;;;;;34.50;6.93;;;0.80;99.90;;;;;;2091553;28;20009;-73
2022/01/18 03:20:06;;;;;;;37.35;6.75;;;0.80;99.90;;;;;;2098472;28;20024;-73
2022/01/18 03:21:09;;;;;;;26.75;6.28;;;0.80;99.90;;;;;;2089882;28;20029;-72
2022/01/18 03:22:10;;;;;;;34.13;6.55;;;0.80;99.90;;;;;;2073760;28;20022;-72
2022/01/18 03:23:17;;;;;;;27.25;6.18;;;0.80;99.90;;;;;;2066564;28;20671;-72
2022/01/18 03:24:43;;;;;;;37.88;7.10;;;0.80;99.90;;;;;;2091819;28;20029;-72
2022/01/18 03:25:54;;;;;;;52.50;8.18;;;0.80;99.90;;;;;;2098403;28;20129;-72
2022/01/18 03:28:17;;;;;;;73.13;9.07;;;0.90;99.90;;;;;;2086531;28;20644;-72
2022/01/18 03:29:18;;;;;;;88.45;9.90;;;0.90;99.90;;;;;;2098812;28;20052;-72
2022/01/18 03:30:19;;;;;;;97.00;10.25;;;0.90;99.90;;;;;;2083314;28;20036;-72
2022/01/18 03:31:20;;;;;;;103.97;10.50;;;0.90;99.90;;;;;;2087874;28;20033;-72
2022/01/18 03:32:21;;;;;;;110.00;9.73;;;0.90;99.90;;;;;;2097203;28;20032;-72
2022/01/18 03:33:24;;;;;;;91.68;10.13;;;0.90;99.90;;;;;;2091088;28;20037;-72
2022/01/18 03:34:26;;;;;;;101.65;10.02;;;0.90;99.90;;;;;;2081586;28;20052;-72
2022/01/18 03:35:27;;;;;;;85.63;9.90;;;0.90;99.90;;;;;;2073616;28;20021;-71
2022/01/18 03:36:28;;;;;;;86.75;10.15;;;0.90;99.90;;;;;;2081967;28;20025;-72
2022/01/18 03:37:28;;;;;;;94.22;9.82;;;1.00;99.90;;;;;;2098370;28;20044;-71
2022/01/18 03:38:30;;;;;;;89.65;10.02;;;1.00;99.90;;;;;;2089548;28;20076;-71
2022/01/18 03:39:30;;;;;;;67.10;8.35;;;1.00;99.90;;;;;;2081813;28;20038;-70
2022/01/18 03:40:31;;;;;;;56.40;8.35;;;1.00;99.90;;;;;;2085483;28;20025;-71
2022/01/18 03:41:32;;;;;;;49.08;7.75;;;1.00;99.90;;;;;;2089557;28;20029;-72
2022/01/18 03:43:38;;;;;;;73.60;9.52;;;1.10;99.90;;;;;;2086289;28;20025;-72
2022/01/18 03:44:39;;;;;;;99.25;10.35;;;1.10;99.90;;;;;;2086281;28;20020;-71
2022/01/18 03:45:44;;;;;;;96.40;10.20;;;1.10;99.90;;;;;;2082709;28;20056;-72
2022/01/18 03:46:45;;;;;;;112.00;10.45;;;1.10;99.90;;;;;;2081599;28;20368;-72
2022/01/18 03:47:46;;;;;;;93.82;10.52;;;1.10;99.90;;;;;;2066879;28;20085;-72
2022/01/18 03:48:50;;;;;;;108.47;10.30;;;1.10;99.90;;;;;;2079985;28;20148;-71
2022/01/18 03:49:51;;;;;;;93.28;9.93;;;1.10;99.90;;;;;;2081149;28;20033;-71
2022/01/18 03:50:52;;;;;;;92.93;9.55;;;1.10;99.90;;;;;;2079554;28;20394;-71
2022/01/18 03:51:53;;;;;;;99.82;9.75;;;1.10;99.90;;;;;;2081181;28;20030;-71
2022/01/18 03:52:55;;;;;;;85.97;9.32;;;1.10;99.90;;;;;;2075002;28;20030;-71
2022/01/18 03:53:55;;;;;;;88.95;9.40;;;1.10;99.90;;;;;;2088460;28;20068;-72
2022/01/18 03:54:56;;;;;;;78.28;8.80;;;1.20;99.90;;;;;;2098058;28;20038;-72
2022/01/18 03:55:58;;;;;;;93.47;9.32;;;1.20;99.90;;;;;;2088381;28;20025;-71
2022/01/18 03:56:58;;;;;;;107.18;9.35;;;1.20;99.90;;;;;;2088564;28;20113;-73
2022/01/18 03:57:59;;;;;;;97.10;10.73;;;1.20;99.90;;;;;;2098981;28;20558;-71
2022/01/18 03:59:00;;;;;;;74.25;8.70;;;1.20;99.90;;;;;;2089003;28;20025;-72
2022/01/18 04:00:04;;;;;;;91.72;9.30;;;1.20;99.90;;;;;;2073113;28;20104;-72
2022/01/18 04:01:12;;;;;;;56.75;7.57;;;1.20;99.90;;;;;;2082637;28;20038;-71
2022/01/18 04:02:14;;;;;;;47.92;6.93;;;1.20;99.90;;;;;;2088804;28;20021;-73
2022/01/18 04:03:15;;;;;;;29.23;6.00;;;1.30;99.90;;;;;;2090492;28;20025;-72
2022/01/18 04:04:19;;;;;;;39.85;6.15;;;1.20;99.90;;;;;;2088161;28;20056;-71
2022/01/18 04:05:20;;;;;;;53.55;7.20;;;1.30;99.90;;;;;;2092159;28;20080;-71
2022/01/18 04:06:20;;;;;;;33.72;6.03;;;1.30;99.90;;;;;;2089165;28;20025;-74
2022/01/18 04:07:21;;;;;;;33.58;6.28;;;1.30;99.90;;;;;;2086305;28;20156;-71
2022/01/18 04:08:22;;;;;;;38.00;6.72;;;1.30;99.90;;;;;;2092305;28;20040;-70
2022/01/18 04:09:23;;;;;;;35.35;6.65;;;1.30;99.90;;;;;;2090387;28;20420;-71
2022/01/18 04:10:24;;;;;;;39.05;6.45;;;1.30;99.90;;;;;;2088961;28;20028;-71
2022/01/18 04:11:25;;;;;;;23.13;5.70;;;1.30;99.90;;;;;;2080515;28;20095;-74
2022/01/18 04:12:25;;;;;;;78.85;8.85;;;1.30;99.90;;;;;;2084103;28;20044;-71
2022/01/18 04:13:26;;;;;;;41.08;6.60;;;1.40;99.90;;;;;;2076174;28;20033;-70
2022/01/18 04:14:27;;;;;;;31.35;6.10;;;1.40;99.90;;;;;;2089228;28;20088;-71
2022/01/18 04:15:29;;;;;;;38.60;6.32;;;1.40;99.90;;;;;;2090597;28;20032;-70
2022/01/18 04:16:40;;;;;;;39.45;6.10;;;1.40;99.90;;;;;;2087816;28;20776;-70
2022/01/18 04:19:10;;;;;;;28.42;5.95;;;1.40;99.90;;;;;;2089245;28;20057;-70
2022/01/18 04:26:56;;;;;;;33.17;5.88;;;1.40;99.90;;;;;;2096750;28;20027;-70
2022/01/18 04:28:08;;;;;;;64.22;7.38;;;1.40;99.90;;;;;;2099231;28;20036;-71
2022/01/18 04:29:09;;;;;;;48.08;7.50;;;1.40;99.90;;;;;;2097952;28;20074;-70
2022/01/18 04:30:11;;;;;;;44.67;6.95;;;1.40;99.90;;;;;;2088573;28;20025;-70
2022/01/18 04:31:12;;;;;;;52.15;7.00;;;1.40;99.90;;;;;;2082071;28;20061;-71
2022/01/18 04:32:12;;;;;;;37.97;7.00;;;1.40;99.90;;;;;;2095903;28;20013;-73
2022/01/18 04:33:13;;;;;;;44.20;6.55;;;1.40;99.90;;;;;;2082719;28;20043;-72
2022/01/18 04:34:14;;;;;;;63.08;7.70;;;1.40;99.90;;;;;;2081400;28;20025;-71
2022/01/18 04:35:14;;;;;;;66.72;7.50;;;1.40;99.90;;;;;;2089766;28;20422;-70
2022/01/18 04:36:15;;;;;;;43.15;6.72;;;1.40;99.90;;;;;;2098171;28;20029;-70
2022/01/18 04:37:16;;;;;;;57.67;7.88;;;1.40;99.90;;;;;;2100670;28;20218;-71
2022/01/18 04:38:17;;;;;;;48.15;7.18;;;1.40;99.90;;;;;;2103098;28;20051;-70
2022/01/18 04:39:17;;;;;;;88.10;9.00;;;1.40;99.90;;;;;;2095066;28;20021;-72
2022/01/18 04:40:25;;;;;;;80.15;8.10;;;1.40;99.90;;;;;;2094058;28;20029;-72
2022/01/18 04:41:29;;;;;;;57.53;7.15;;;1.40;99.90;;;;;;2104072;28;20016;-72
2022/01/18 04:49:15;;;;;;;80.25;8.48;;;1.40;99.90;;;;;;2092934;28;20097;-71
2022/01/18 04:50:16;;;;;;;90.55;8.35;;;1.30;99.90;;;;;;2092074;28;20563;-70
2022/01/18 04:51:16;;;;;;;81.32;9.63;;;1.30;99.90;;;;;;2089447;28;20035;-70
2022/01/18 04:52:17;;;;;;;92.55;9.45;;;1.40;99.90;;;;;;2080653;28;20021;-70
2022/01/18 04:53:18;;;;;;;118.65;9.90;;;1.40;99.90;;;;;;2080527;28;20025;-71
2022/01/18 04:54:18;;;;;;;107.50;9.93;;;1.30;99.90;;;;;;2088752;28;20094;-71
2022/01/18 04:55:20;;;;;;;97.45;9.35;;;1.30;99.90;;;;;;2088801;28;20039;-70
2022/01/18 04:57:53;;;;;;;99.07;9.45;;;1.30;99.90;;;;;;2097391;28;20036;-70
2022/01/18 04:58:54;;;;;;;100.25;10.35;;;1.30;99.90;;;;;;2097456;28;20705;-71
2022/01/18 04:59:54;;;;;;;109.75;9.90;;;1.30;99.90;;;;;;2097442;28;20051;-71
2022/01/18 05:00:59;;;;;;;71.05;9.05;;;1.30;99.90;;;;;;2097349;28;20488;-71
2022/01/18 05:02:00;;;;;;;93.45;9.95;;;1.30;99.90;;;;;;2088434;28;20029;-71
2022/01/18 05:03:01;;;;;;;97.85;9.68;;;1.30;99.90;;;;;;2088788;28;20029;-70
2022/01/18 05:04:01;;;;;;;99.03;9.45;;;1.40;99.90;;;;;;2088558;28;20468;-70
2022/01/18 05:05:02;;;;;;;61.08;8.15;;;1.40;99.90;;;;;;2097986;28;20032;-70
2022/01/18 05:06:09;;;;;;;100.50;9.15;;;1.30;99.90;;;;;;2088776;28;20060;-71
2022/01/18 05:07:13;;;;;;;133.55;9.93;;;1.30;99.90;;;;;;2081442;28;20135;-70
2022/01/18 05:08:14;;;;;;;120.55;9.77;;;1.30;99.90;;;;;;2072327;28;20040;-71
2022/01/18 05:09:15;;;;;;;122.20;9.98;;;1.30;99.90;;;;;;2072740;28;20084;-72
2022/01/18 05:10:19;;;;;;;122.88;9.50;;;1.30;99.90;;;;;;2080610;28;20140;-72
2022/01/18 05:11:22;;;;;;;103.78;9.48;;;1.30;99.90;;;;;;2089204;28;20036;-72
2022/01/18 05:12:37;;;;;;;70.90;8.10;;;1.40;99.90;;;;;;2097615;28;20028;-72
2022/01/18 05:14:39;;;;;;;101.95;9.23;;;1.40;99.90;;;;;;2097614;28;20449;-71
2022/01/18 05:15:50;;;;;;;95.47;8.70;;;1.30;99.90;;;;;;2088868;28;20041;-73
2022/01/18 05:19:48;;;;;;;106.78;8.38;;;1.30;99.90;;;;;;2086309;28;20000;-71
2022/01/18 05:23:06;;;;;;;92.63;8.02;;;1.30;99.90;;;;;;2098160;28;20544;-71
2022/01/18 05:24:06;;;;;;;81.10;8.27;;;1.30;99.90;;;;;;2097676;28;20066;-71
2022/01/18 05:25:07;;;;;;;106.35;9.55;;;1.40;99.90;;;;;;2097704;28;20036;-71
2022/01/18 05:26:29;;;;;;;103.03;9.05;;;1.30;99.90;;;;;;2097674;28;20101;-73
2022/01/18 05:27:30;;;;;;;82.00;8.38;;;1.30;99.90;;;;;;2080483;28;20029;-71
2022/01/18 05:28:47;;;;;;;111.40;8.52;;;1.40;99.90;;;;;;2080736;28;20442;-72
2022/01/18 05:29:54;;;;;;;93.95;8.63;;;1.30;99.90;;;;;;2089003;28;20024;-71
2022/01/18 05:32:02;;;;;;;91.47;8.38;;;1.40;99.90;;;;;;2092233;28;20460;-73
2022/01/18 05:33:08;;;;;;;72.07;8.35;;;1.40;99.90;;;;;;2089205;28;20059;-71
2022/01/18 05:34:18;;;;;;;68.65;7.10;;;1.40;99.90;;;;;;2080974;28;20386;-70
2022/01/18 05:35:27;;;;;;;73.90;7.63;;;1.40;99.90;;;;;;2081981;28;20528;-71
2022/01/18 05:36:31;;;;;;;92.55;9.60;;;1.40;99.90;;;;;;2089217;28;20025;-73
2022/01/18 05:37:37;;;;;;;82.95;7.70;;;1.40;99.90;;;;;;2097262;28;20387;-71
2022/01/18 05:38:39;;;;;;;77.85;8.40;;;1.40;99.90;;;;;;2088123;28;20110;-74
2022/01/18 05:39:39;;;;;;;85.45;8.57;;;1.40;99.90;;;;;;2080212;28;20033;-70
2022/01/18 05:41:03;;;;;;;87.18;8.07;;;1.40;99.90;;;;;;2079938;28;20765;-72
2022/01/18 05:42:06;;;;;;;99.28;8.65;;;1.40;99.90;;;;;;2082192;28;20424;-70
2022/01/18 05:43:07;;;;;;;96.22;8.93;;;1.40;99.90;;;;;;2088659;28;20579;-71
2022/01/18 05:44:14;;;;;;;86.68;8.95;;;1.30;99.90;;;;;;2088427;28;20025;-70
2022/01/18 05:45:18;;;;;;;92.68;8.60;;;1.40;99.90;;;;;;2088424;28;20399;-70
2022/01/18 05:46:24;;;;;;;70.38;8.07;;;1.40;99.90;;;;;;2080139;28;20037;-72
2022/01/18 05:47:30;;;;;;;87.45;8.30;;;1.40;99.90;;;;;;2072932;28;20030;-72
2022/01/18 05:48:34;;;;;;;101.25;8.77;;;1.40;99.90;;;;;;2073753;28;20180;-71
2022/01/18 05:49:38;;;;;;;110.00;9.48;;;1.40;99.90;;;;;;2080428;28;20037;-69
2022/01/18 05:50:39;;;;;;;86.35;9.32;;;1.40;99.90;;;;;;2088857;28;20047;-69
2022/01/18 05:51:48;;;;;;;95.53;9.00;;;1.40;99.90;;;;;;2079418;28;20099;-70
2022/01/18 05:52:58;;;;;;;104.57;9.35;;;1.30;99.90;;;;;;2082649;28;20033;-70
2022/01/18 05:53:59;;;;;;;90.70;8.48;;;1.30;99.90;;;;;;2096786;28;20075;-71
2022/01/18 05:55:04;;;;;;;94.18;9.23;;;1.30;99.90;;;;;;2088466;28;20063;-73
2022/01/18 05:56:13;;;;;;;99.88;8.90;;;1.30;99.90;;;;;;2080409;28;20090;-71
2022/01/18 05:57:20;;;;;;;98.50;9.10;;;1.30;99.90;;;;;;2089391;28;20045;-72
2022/01/18 05:58:20;;;;;;;79.93;8.27;;;1.30;99.90;;;;;;2097108;28;20036;-71
2022/01/18 05:59:23;;;;;;;120.85;9.10;;;1.30;99.90;;;;;;2088048;28;20065;-71
2022/01/18 06:00:26;;;;;;;69.97;7.93;;;1.30;99.90;;;;;;2088477;28;20013;-71
2022/01/18 06:01:47;;;;;;;104.18;9.20;;;1.30;99.90;;;;;;2079491;28;20045;-70
2022/01/18 06:03:14;;;;;;;96.25;8.90;;;1.30;99.90;;;;;;2075833;28;20032;-70
2022/01/18 06:06:54;;;;;;;114.50;9.38;;;1.30;99.90;;;;;;2097532;28;20028;-72
2022/01/18 06:07:56;;;;;;;98.10;8.63;;;1.30;99.90;;;;;;2079419;28;20065;-71
2022/01/18 06:09:01;;;;;;;100.85;8.70;;;1.30;99.90;;;;;;2064150;28;20054;-71
2022/01/18 06:10:14;;;;;;;101.32;8.18;;;1.30;99.90;;;;;;2080882;28;20013;-71
2022/01/18 06:11:17;;;;;;;96.90;8.38;;;1.40;99.90;;;;;;2080168;28;20037;-70
2022/01/18 06:12:31;;;;;;;92.75;8.40;;;1.30;99.90;;;;;;2080739;28;20781;-71
2022/01/18 06:13:32;;;;;;;62.22;6.82;;;1.30;99.90;;;;;;2090679;28;20419;-71
2022/01/18 06:14:39;;;;;;;102.85;8.73;;;1.30;99.90;;;;;;2082235;28;20029;-71
2022/01/18 06:15:40;;;;;;;97.10;9.23;;;1.40;99.90;;;;;;2082887;28;20060;-71
2022/01/18 06:16:40;;;;;;;99.15;8.77;;;1.30;99.90;;;;;;2082033;28;20053;-71
2022/01/18 06:17:44;;;;;;;84.88;8.05;;;1.30;99.90;;;;;;2082277;28;20055;-71
2022/01/18 06:18:50;;;;;;;74.78;7.50;;;1.30;99.90;;;;;;2082723;28;20033;-72
2022/01/18 06:19:54;;;;;;;81.35;8.23;;;1.30;99.90;;;;;;2084854;28;20064;-71
2022/01/18 06:21:02;;;;;;;103.53;8.65;;;1.40;99.90;;;;;;2091756;28;20064;-71
2022/01/18 06:22:26;;;;;;;54.63;7.22;;;1.30;99.90;;;;;;2100511;28;20024;-71
2022/01/18 06:23:27;;;;;;;73.43;7.20;;;1.40;99.90;;;;;;2090927;28;20660;-71
2022/01/18 06:24:30;;;;;;;89.57;9.27;;;1.40;99.90;;;;;;2090926;28;20025;-69
2022/01/18 06:25:40;;;;;;;96.40;8.40;;;1.40;99.90;;;;;;2099517;28;20056;-70
2022/01/18 06:26:41;;;;;;;79.80;8.00;;;1.40;99.90;;;;;;2081697;28;20029;-70
2022/01/18 06:27:55;;;;;;;87.47;7.72;;;1.40;99.90;;;;;;2082198;28;20037;-69
2022/01/18 06:29:00;;;;;;;87.75;8.07;;;1.40;99.90;;;;;;2090042;28;20213;-69
2022/01/18 06:30:10;;;;;;;90.97;8.88;;;1.40;99.90;;;;;;2082606;28;20029;-70
2022/01/18 06:31:18;;;;;;;89.38;8.07;;;1.40;99.90;;;;;;2083427;28;20128;-71
2022/01/18 06:32:19;;;;;;;87.55;8.43;;;1.40;99.90;;;;;;2074406;28;20148;-70
2022/01/18 06:33:29;;;;;;;64.72;7.18;;;1.40;99.90;;;;;;2082271;28;20480;-70
2022/01/18 06:34:32;;;;;;;59.97;6.63;;;1.40;99.90;;;;;;2090235;28;20025;-71
2022/01/18 06:35:33;;;;;;;91.57;7.53;;;1.40;99.90;;;;;;2082490;28;20132;-69
2022/01/18 06:36:53;;;;;;;65.40;8.68;;;1.40;99.90;;;;;;2081564;28;20025;-69